Wuhan, China
Current Conditions -  °F | °C
As of 3:00 PM on Saturday 29 Nov 2014 (Local Time) from ZHHH Reporting Station
Haze Haze  
Wind Chill: 50°   Ceiling: 4000
Heat Index: 50°   Visibility: 2.8mi
Dew Point: 48°   Wind: 2mph
Humidity: 94%   Direction: NA
Pressure: 29.91"   Gusts: NA
Location:  30.58°N, 114.27°E
Report Text: ZHHH 290700Z VRB01MPS 4500 BR BKN040 10/09 Q1013 RESHRANOSIG
Loading
Personal Weather Stations






























Interactive Weather Map New forecast layout! Learn more

10-Day Weather Forecast

Advertisements
Track Severe Weather on mobile